createdAt,value
2022-09-17T00:01:31.316Z,9.40
2022-09-17T00:04:05.701Z,9.40
2022-09-17T00:06:36.345Z,9.40
2022-09-17T00:09:07.090Z,9.40
2022-09-17T00:11:37.591Z,9.40
2022-09-17T00:14:09.266Z,9.50
2022-09-17T00:16:40.201Z,9.50
2022-09-17T00:19:14.820Z,9.50
2022-09-17T00:21:43.719Z,9.50
2022-09-17T00:24:13.791Z,9.60
2022-09-17T00:26:42.073Z,9.60
2022-09-17T00:29:11.206Z,9.70
2022-09-17T00:31:39.940Z,9.60
2022-09-17T00:34:09.810Z,9.70
2022-09-17T00:36:38.994Z,9.70
2022-09-17T00:39:09.600Z,9.60
2022-09-17T00:41:39.484Z,9.60
2022-09-17T00:44:43.340Z,9.70
2022-09-17T00:47:20.097Z,9.70
2022-09-17T00:49:51.615Z,9.60
2022-09-17T00:52:25.399Z,9.70
2022-09-17T00:54:58.693Z,9.70
2022-09-17T00:57:27.893Z,9.70
2022-09-17T00:59:57.815Z,9.70
2022-09-17T01:02:26.782Z,9.70
2022-09-17T01:04:56.233Z,9.70
2022-09-17T01:07:41.263Z,9.70
2022-09-17T01:10:17.279Z,9.70
2022-09-17T01:13:04.118Z,9.70
2022-09-17T01:15:41.459Z,9.80
2022-09-17T01:18:26.378Z,9.70
2022-09-17T01:21:21.928Z,9.80
2022-09-17T01:24:32.934Z,9.70
2022-09-17T01:27:30.589Z,9.70
2022-09-17T01:30:25.152Z,9.60
2022-09-17T01:33:02.855Z,9.70
2022-09-17T01:35:38.310Z,9.70
2022-09-17T01:38:12.291Z,9.70
2022-09-17T01:40:49.094Z,9.70
2022-09-17T01:43:24.016Z,9.60
2022-09-17T01:45:53.537Z,9.60
2022-09-17T01:48:27.187Z,9.60
2022-09-17T01:51:02.162Z,9.60
2022-09-17T01:53:36.387Z,9.60
2022-09-17T01:56:05.383Z,9.70
2022-09-17T01:58:37.855Z,9.50
2022-09-17T02:01:09.341Z,9.50
2022-09-17T02:03:43.215Z,9.60
2022-09-17T02:06:15.051Z,9.60
2022-09-17T02:08:48.142Z,9.50
2022-09-17T02:11:17.298Z,9.50
2022-09-17T02:13:51.057Z,9.50
2022-09-17T02:16:24.822Z,9.40
2022-09-17T02:18:59.403Z,9.60
2022-09-17T02:21:36.085Z,9.40
2022-09-17T02:24:12.758Z,9.50
2022-09-17T02:26:48.611Z,9.40
2022-09-17T02:29:25.147Z,9.40
2022-09-17T02:31:53.659Z,9.40
2022-09-17T02:34:25.377Z,9.30
2022-09-17T02:36:53.574Z,9.30
2022-09-17T02:39:21.701Z,9.20
2022-09-17T02:41:59.091Z,9.20
2022-09-17T02:44:39.001Z,9.10
2022-09-17T02:47:30.245Z,9.10
2022-09-17T02:50:26.119Z,9.00
2022-09-17T02:53:06.551Z,9.00
2022-09-17T02:55:42.659Z,9.00
2022-09-17T02:58:21.381Z,9.00
2022-09-17T03:00:49.757Z,9.00
2022-09-17T03:03:23.885Z,9.00
2022-09-17T03:05:54.386Z,9.00
2022-09-17T03:08:30.057Z,9.10
2022-09-17T03:10:58.066Z,9.10
2022-09-17T03:13:26.764Z,9.10
2022-09-17T03:15:54.888Z,9.10
2022-09-17T03:18:23.359Z,9.00
2022-09-17T03:20:53.264Z,8.80
2022-09-17T03:23:21.346Z,8.80
2022-09-17T03:25:49.526Z,8.80
2022-09-17T03:28:18.101Z,8.70
2022-09-17T03:30:46.794Z,8.70
2022-09-17T03:33:17.443Z,8.70
2022-09-17T03:35:46.129Z,8.70
2022-09-17T03:38:15.834Z,8.70
2022-09-17T03:40:44.499Z,8.70
2022-09-17T03:43:12.603Z,8.70
2022-09-17T03:45:42.135Z,8.60
2022-09-17T03:48:10.326Z,8.60
2022-09-17T03:50:38.365Z,8.60
2022-09-17T03:53:06.394Z,8.60
2022-09-17T03:55:38.981Z,8.60
2022-09-17T03:58:08.890Z,8.60
2022-09-17T04:00:37.778Z,8.70
2022-09-17T04:03:07.588Z,8.60
2022-09-17T04:05:35.580Z,8.60
2022-09-17T04:08:03.899Z,8.60
2022-09-17T04:10:32.016Z,8.60
2022-09-17T04:13:01.375Z,8.50
2022-09-17T04:15:29.641Z,8.50
2022-09-17T04:17:58.776Z,8.50
2022-09-17T04:20:27.761Z,8.50
2022-09-17T04:22:56.275Z,8.50
2022-09-17T04:25:24.250Z,8.50
2022-09-17T04:27:52.258Z,8.50
2022-09-17T04:30:21.716Z,8.50
2022-09-17T04:32:49.597Z,8.50
2022-09-17T04:35:17.992Z,8.50
2022-09-17T04:37:53.685Z,8.50
2022-09-17T04:40:21.841Z,8.50
2022-09-17T04:42:49.960Z,8.50
2022-09-17T04:45:17.906Z,8.60
2022-09-17T04:47:47.555Z,8.50
2022-09-17T04:50:15.701Z,8.60
2022-09-17T04:52:46.153Z,8.60
2022-09-17T04:55:15.149Z,8.60
2022-09-17T04:57:47.697Z,8.60
2022-09-17T05:00:17.649Z,8.50
2022-09-17T05:02:48.786Z,8.60
2022-09-17T05:05:17.975Z,8.50
2022-09-17T05:07:48.126Z,8.60
2022-09-17T05:10:19.078Z,8.60
2022-09-17T05:12:50.789Z,8.50
2022-09-17T05:15:19.452Z,8.60
2022-09-17T05:17:49.297Z,8.50
2022-09-17T05:20:18.199Z,8.50
2022-09-17T05:22:47.569Z,8.50
2022-09-17T05:25:17.198Z,8.50
2022-09-17T05:27:45.889Z,8.50
2022-09-17T05:30:14.554Z,8.50
2022-09-17T05:32:42.692Z,8.50
2022-09-17T05:35:12.684Z,8.50
2022-09-17T05:37:40.935Z,8.50
2022-09-17T05:40:10.398Z,8.50
2022-09-17T05:42:38.832Z,8.50
2022-09-17T05:45:07.905Z,8.50
2022-09-17T05:47:36.410Z,8.50
2022-09-17T05:50:06.724Z,8.50
2022-09-17T05:52:36.242Z,8.60
2022-09-17T05:55:04.535Z,8.60
2022-09-17T05:57:32.987Z,8.60
2022-09-17T06:00:01.180Z,8.60
2022-09-17T06:02:29.556Z,8.60
2022-09-17T06:05:02.355Z,8.70
2022-09-17T06:07:32.853Z,8.70
2022-09-17T06:10:05.137Z,8.80
2022-09-17T06:12:38.440Z,8.80
2022-09-17T06:15:14.712Z,8.90
2022-09-17T06:17:43.473Z,8.80
2022-09-17T06:20:13.504Z,8.80
2022-09-17T06:22:42.910Z,8.90
2022-09-17T06:25:12.447Z,8.90
2022-09-17T06:27:40.672Z,9.00
2022-09-17T06:30:09.585Z,9.00
2022-09-17T06:32:37.621Z,9.10
2022-09-17T06:35:06.545Z,9.10
2022-09-17T06:37:36.315Z,9.20
2022-09-17T06:40:04.747Z,9.40
2022-09-17T06:42:34.158Z,9.50
2022-09-17T06:45:09.261Z,9.70
2022-09-17T06:47:38.786Z,9.90
2022-09-17T06:50:07.570Z,10.10
2022-09-17T06:52:35.736Z,10.10
2022-09-17T06:55:03.928Z,10.20
2022-09-17T06:57:33.326Z,10.30
2022-09-17T07:00:01.366Z,10.30
2022-09-17T07:02:29.833Z,10.20
2022-09-17T07:04:59.583Z,10.10
2022-09-17T07:07:28.166Z,10.30
2022-09-17T07:09:58.665Z,10.10
2022-09-17T07:12:26.811Z,10.20
2022-09-17T07:14:59.043Z,10.30
2022-09-17T07:17:30.807Z,10.40
2022-09-17T07:20:05.470Z,10.60
2022-09-17T07:22:38.641Z,10.80
2022-09-17T07:25:11.306Z,10.60
2022-09-17T07:27:41.080Z,10.70
2022-09-17T07:30:15.793Z,10.90
2022-09-17T07:32:44.493Z,10.90
2022-09-17T07:35:12.907Z,10.90
2022-09-17T07:37:49.696Z,11.20
2022-09-17T07:40:20.883Z,11.20
2022-09-17T07:42:54.430Z,11.20
2022-09-17T07:45:24.863Z,11.50
2022-09-17T07:47:59.012Z,11.70
2022-09-17T07:50:44.667Z,11.90
2022-09-17T07:53:17.647Z,11.80
2022-09-17T07:55:54.289Z,12.10
2022-09-17T07:58:24.026Z,12.20
2022-09-17T08:01:01.489Z,12.30
2022-09-17T08:03:30.688Z,12.70
2022-09-17T08:06:04.396Z,12.90
2022-09-17T08:08:42.755Z,13.00
2022-09-17T08:11:32.376Z,13.00
2022-09-17T08:14:07.274Z,12.90
2022-09-17T08:16:37.015Z,13.10
2022-09-17T08:19:05.117Z,13.20
2022-09-17T08:21:34.701Z,13.10
2022-09-17T08:24:03.054Z,13.00
2022-09-17T08:26:32.724Z,12.90
2022-09-17T08:29:01.049Z,13.00
2022-09-17T08:31:30.567Z,13.10
2022-09-17T08:34:00.257Z,13.10
2022-09-17T08:36:29.148Z,12.90
2022-09-17T08:39:03.521Z,12.90
2022-09-17T08:41:53.539Z,12.80
2022-09-17T08:44:27.266Z,12.60
2022-09-17T08:47:01.329Z,12.30
2022-09-17T08:49:38.414Z,12.30
2022-09-17T08:52:43.964Z,12.30
2022-09-17T08:55:23.481Z,12.20
2022-09-17T08:58:02.113Z,12.30
2022-09-17T09:00:34.390Z,12.40
2022-09-17T09:03:18.046Z,12.50
2022-09-17T09:05:52.464Z,13.00
2022-09-17T09:08:33.511Z,13.10
2022-09-17T09:11:04.939Z,13.10
2022-09-17T09:13:38.255Z,12.80
2022-09-17T09:16:13.318Z,12.90
2022-09-17T09:18:42.836Z,12.80
2022-09-17T09:21:26.966Z,12.80
2022-09-17T09:23:58.755Z,12.80
2022-09-17T09:26:41.852Z,13.00
2022-09-17T09:29:20.270Z,13.10
2022-09-17T09:32:01.197Z,13.00
2022-09-17T09:34:30.712Z,13.00
2022-09-17T09:37:12.467Z,12.80
2022-09-17T09:39:46.355Z,12.80
2022-09-17T09:42:28.955Z,13.10
2022-09-17T09:45:05.168Z,13.10
2022-09-17T09:47:55.997Z,13.20
2022-09-17T09:51:04.648Z,13.40
2022-09-17T09:53:37.217Z,13.70
2022-09-17T09:56:29.991Z,13.80
2022-09-17T09:58:58.498Z,13.90
2022-09-17T10:01:29.564Z,14.00
2022-09-17T10:03:59.135Z,14.40
2022-09-17T10:06:31.687Z,14.70
2022-09-17T10:09:19.461Z,15.10
2022-09-17T10:12:01.925Z,15.50
2022-09-17T10:14:32.467Z,15.50
2022-09-17T10:17:20.874Z,15.30
2022-09-17T10:20:20.719Z,15.00
2022-09-17T10:22:51.096Z,14.70
2022-09-17T10:25:30.840Z,14.50
2022-09-17T10:28:02.239Z,14.40
2022-09-17T10:30:32.667Z,14.40
2022-09-17T10:33:25.388Z,14.40
2022-09-17T10:36:02.705Z,14.20
2022-09-17T10:38:37.030Z,13.90
2022-09-17T10:41:15.564Z,13.70
2022-09-17T10:43:45.002Z,13.60
2022-09-17T10:46:17.730Z,13.60
2022-09-17T10:48:53.751Z,13.70
2022-09-17T10:51:25.244Z,13.60
2022-09-17T10:54:23.591Z,13.70
2022-09-17T10:56:58.255Z,13.80
2022-09-17T11:00:09.149Z,13.90
2022-09-17T11:03:10.971Z,14.00
2022-09-17T11:05:49.213Z,13.90
2022-09-17T11:08:25.464Z,13.80
2022-09-17T11:11:03.012Z,13.80
2022-09-17T11:13:41.955Z,13.80
2022-09-17T11:16:24.812Z,13.90
2022-09-17T11:19:02.161Z,14.10
2022-09-17T11:21:41.730Z,14.30
2022-09-17T11:24:52.923Z,14.70
2022-09-17T11:27:48.142Z,15.00
2022-09-17T11:30:20.624Z,15.20
2022-09-17T11:33:20.934Z,15.40
2022-09-17T11:35:53.766Z,15.40
2022-09-17T11:38:27.583Z,15.50
2022-09-17T11:41:03.216Z,15.50
2022-09-17T11:43:34.829Z,15.70
2022-09-17T11:46:10.550Z,16.00
2022-09-17T11:48:46.981Z,16.00
2022-09-17T11:51:35.789Z,16.00
2022-09-17T11:54:23.165Z,15.50
2022-09-17T11:57:49.958Z,15.30
2022-09-17T12:00:02.486Z,15.10
2022-09-17T12:02:48.458Z,15.00
2022-09-17T12:05:23.839Z,15.00
2022-09-17T12:08:04.621Z,15.40
2022-09-17T12:10:53.392Z,15.90
2022-09-17T12:13:37.205Z,16.00
2022-09-17T12:16:23.497Z,16.30
2022-09-17T12:19:15.116Z,16.60
2022-09-17T12:21:48.694Z,17.00
2022-09-17T12:24:25.137Z,17.10
2022-09-17T12:27:04.533Z,17.00
2022-09-17T12:29:45.357Z,16.90
2022-09-17T12:32:30.282Z,16.60
2022-09-17T12:35:08.957Z,16.10
2022-09-17T12:37:44.642Z,15.50
2022-09-17T12:40:30.305Z,15.20
2022-09-17T12:43:28.505Z,15.60
2022-09-17T12:46:18.148Z,16.00
2022-09-17T12:49:10.763Z,16.30
2022-09-17T12:51:57.243Z,16.40
2022-09-17T12:54:46.344Z,16.20
2022-09-17T12:57:26.383Z,16.50
2022-09-17T13:00:06.801Z,16.50
2022-09-17T13:02:41.238Z,16.50
2022-09-17T13:05:51.904Z,16.40
2022-09-17T13:09:02.150Z,16.60
2022-09-17T13:12:03.969Z,16.80
2022-09-17T13:14:52.937Z,16.90
2022-09-17T13:17:29.686Z,17.00
2022-09-17T13:20:04.745Z,17.20
2022-09-17T13:22:34.925Z,17.20
2022-09-17T13:25:06.562Z,17.20
2022-09-17T13:27:38.364Z,17.10
2022-09-17T13:30:07.844Z,17.10
2022-09-17T13:32:49.879Z,17.10
2022-09-17T13:35:52.267Z,17.00
2022-09-17T13:38:25.837Z,16.80
2022-09-17T13:41:14.195Z,16.70
2022-09-17T13:43:47.779Z,16.50
2022-09-17T13:46:24.675Z,16.30
2022-09-17T13:48:58.272Z,16.00
2022-09-17T13:51:46.808Z,16.00
2022-09-17T13:54:16.839Z,16.10
2022-09-17T13:56:47.139Z,15.90
2022-09-17T13:59:20.032Z,15.70
2022-09-17T14:02:01.713Z,15.70
2022-09-17T14:04:47.658Z,15.50
2022-09-17T14:07:47.369Z,15.40
2022-09-17T14:10:41.857Z,15.20
2022-09-17T14:13:40.092Z,15.00
2022-09-17T14:16:27.259Z,14.80
2022-09-17T14:19:00.396Z,14.60
2022-09-17T14:21:31.970Z,14.50
2022-09-17T14:24:02.489Z,14.40
2022-09-17T14:30:08.174Z,13.90
2022-09-17T14:32:50.948Z,13.80
2022-09-17T14:35:59.428Z,13.80
2022-09-17T14:38:33.459Z,13.60
2022-09-17T14:41:42.440Z,13.40
2022-09-17T14:44:19.344Z,13.10
2022-09-17T14:46:55.382Z,12.80
2022-09-17T14:49:28.545Z,12.30
2022-09-17T14:52:24.689Z,12.00
2022-09-17T14:55:26.874Z,11.90
2022-09-17T14:57:58.599Z,11.50
2022-09-17T15:00:34.122Z,11.60
2022-09-17T15:03:04.213Z,11.60
2022-09-17T15:05:40.773Z,11.60
2022-09-17T15:08:22.126Z,11.70
2022-09-17T15:10:54.005Z,11.60
2022-09-17T15:13:28.733Z,11.80
2022-09-17T15:16:21.359Z,12.00
2022-09-17T15:18:56.680Z,12.00
2022-09-17T15:21:35.235Z,12.00
2022-09-17T15:24:17.645Z,12.10
2022-09-17T15:30:35.148Z,11.70
2022-09-17T15:33:08.319Z,11.70
2022-09-17T15:35:38.473Z,11.60
2022-09-17T15:38:28.147Z,11.70
2022-09-17T15:41:11.981Z,11.80
2022-09-17T15:43:46.606Z,11.80
2022-09-17T15:46:24.611Z,11.70
2022-09-17T15:48:54.842Z,11.70
2022-09-17T15:51:30.193Z,11.80
2022-09-17T15:54:05.519Z,11.90
2022-09-17T15:56:38.964Z,11.80
2022-09-17T15:59:23.442Z,11.80
2022-09-17T16:01:57.409Z,11.70
2022-09-17T16:04:31.527Z,11.80
2022-09-17T16:07:34.422Z,11.80
2022-09-17T16:10:07.296Z,11.90
2022-09-17T16:12:40.201Z,11.80
2022-09-17T16:15:11.734Z,11.90
2022-09-17T16:17:55.763Z,11.80
2022-09-17T16:20:26.697Z,11.90
2022-09-17T16:23:02.585Z,11.70
2022-09-17T16:25:36.417Z,11.60
2022-09-17T16:28:10.459Z,11.50
2022-09-17T16:30:51.096Z,11.40
2022-09-17T16:33:21.995Z,11.40
2022-09-17T16:35:52.081Z,11.30
2022-09-17T16:38:26.141Z,11.30
2022-09-17T16:40:59.297Z,11.40
2022-09-17T16:43:29.580Z,11.50
2022-09-17T16:46:03.040Z,11.60
2022-09-17T16:48:33.770Z,11.50
2022-09-17T16:51:10.728Z,11.60
2022-09-17T16:53:41.262Z,11.50
2022-09-17T16:56:13.668Z,11.40
2022-09-17T16:58:43.944Z,11.30
2022-09-17T17:01:16.546Z,11.40
2022-09-17T17:03:49.366Z,11.40
2022-09-17T17:06:28.040Z,11.40
2022-09-17T17:09:01.925Z,11.40
2022-09-17T17:11:33.737Z,11.50
2022-09-17T17:14:05.296Z,11.40
2022-09-17T17:16:35.950Z,11.40
2022-09-17T17:19:06.457Z,11.30
2022-09-17T17:21:47.003Z,11.40
2022-09-17T17:24:18.367Z,11.50
2022-09-17T17:26:50.103Z,11.50
2022-09-17T17:29:27.032Z,11.40
2022-09-17T17:31:57.140Z,11.40
2022-09-17T17:34:34.412Z,11.50
2022-09-17T17:37:04.354Z,11.40
2022-09-17T17:39:39.351Z,11.30
2022-09-17T17:42:11.018Z,11.20
2022-09-17T17:44:44.452Z,11.30
2022-09-17T17:47:14.236Z,11.20
2022-09-17T17:49:50.926Z,11.10
2022-09-17T17:52:23.653Z,11.10
2022-09-17T17:54:56.168Z,11.00
2022-09-17T17:57:30.348Z,11.00
2022-09-17T18:00:01.012Z,11.00
2022-09-17T18:02:32.908Z,10.90
2022-09-17T18:05:17.840Z,10.80
2022-09-17T18:07:53.700Z,10.70
2022-09-17T18:10:24.297Z,10.60
2022-09-17T18:13:07.121Z,10.70
2022-09-17T18:15:55.582Z,10.70
2022-09-17T18:18:27.938Z,10.60
2022-09-17T18:21:05.621Z,10.50
2022-09-17T18:23:42.551Z,10.40
2022-09-17T18:26:16.569Z,10.30
2022-09-17T18:28:52.933Z,10.30
2022-09-17T18:31:30.384Z,10.30
2022-09-17T18:34:03.130Z,10.30
2022-09-17T18:36:35.357Z,10.30
2022-09-17T18:39:44.878Z,10.20
2022-09-17T18:41:59.266Z,10.30
2022-09-17T18:44:32.180Z,10.20
2022-09-17T18:47:02.777Z,10.30
2022-09-17T18:49:33.307Z,10.20
2022-09-17T18:52:03.910Z,10.20
2022-09-17T18:54:37.981Z,10.20
2022-09-17T18:57:09.204Z,10.10
2022-09-17T18:59:40.442Z,10.30
2022-09-17T19:02:19.442Z,10.30
2022-09-17T19:04:52.339Z,10.30
2022-09-17T19:07:22.490Z,10.40
2022-09-17T19:09:57.713Z,10.40
2022-09-17T19:12:32.361Z,10.50
2022-09-17T19:15:03.482Z,10.50
2022-09-17T19:17:45.280Z,10.40
2022-09-17T19:20:19.711Z,10.40
2022-09-17T19:22:50.246Z,10.40
2022-09-17T19:25:20.865Z,10.30
2022-09-17T19:27:57.336Z,10.30
2022-09-17T19:30:30.762Z,10.30
2022-09-17T19:33:00.689Z,10.30
2022-09-17T19:35:31.987Z,10.30
2022-09-17T19:38:04.096Z,10.30
2022-09-17T19:40:32.888Z,10.40
2022-09-17T19:43:03.404Z,10.40
2022-09-17T19:45:39.205Z,10.40
2022-09-17T19:48:09.653Z,10.40
2022-09-17T19:50:39.489Z,10.30
2022-09-17T19:53:10.001Z,10.20
2022-09-17T19:55:44.729Z,10.20
2022-09-17T19:58:15.125Z,10.20
2022-09-17T20:00:46.611Z,10.30
2022-09-17T20:03:17.161Z,10.40
2022-09-17T20:05:47.634Z,10.40
2022-09-17T20:08:17.681Z,10.50
2022-09-17T20:10:50.277Z,10.50
2022-09-17T20:13:21.193Z,10.60
2022-09-17T20:16:09.103Z,10.50
2022-09-17T20:18:40.259Z,10.50
2022-09-17T20:21:12.525Z,10.50
2022-09-17T20:23:42.811Z,10.50
2022-09-17T20:26:14.274Z,10.30
2022-09-17T20:28:47.525Z,10.30
2022-09-17T20:31:24.646Z,10.40
2022-09-17T20:34:05.803Z,10.30
2022-09-17T20:36:38.766Z,10.20
2022-09-17T20:39:22.451Z,10.30
2022-09-17T20:41:53.304Z,10.20
2022-09-17T20:44:27.758Z,10.30
2022-09-17T20:46:59.692Z,10.30
2022-09-17T20:49:29.951Z,10.30
2022-09-17T20:52:00.156Z,10.20
2022-09-17T20:54:30.517Z,10.20
2022-09-17T20:56:58.907Z,10.10
2022-09-17T20:59:49.116Z,10.20
2022-09-17T21:02:23.376Z,10.20
2022-09-17T21:04:55.136Z,10.30
2022-09-17T21:07:36.134Z,10.30
2022-09-17T21:10:09.333Z,10.20
2022-09-17T21:12:40.188Z,10.30
2022-09-17T21:15:11.345Z,10.30
2022-09-17T21:17:47.977Z,10.40
2022-09-17T21:20:18.603Z,10.30
2022-09-17T21:22:54.594Z,10.30
2022-09-17T21:25:24.667Z,10.30
2022-09-17T21:27:55.147Z,10.30
2022-09-17T21:30:25.752Z,10.30
2022-09-17T21:32:57.314Z,10.20
2022-09-17T21:35:35.098Z,10.10
2022-09-17T21:38:05.606Z,10.20
2022-09-17T21:40:35.942Z,10.10
2022-09-17T21:43:08.156Z,10.00
2022-09-17T21:45:38.249Z,10.00
2022-09-17T21:48:10.027Z,9.90
2022-09-17T21:50:40.045Z,9.90
2022-09-17T21:53:09.930Z,9.80
2022-09-17T21:55:40.258Z,9.80
2022-09-17T21:58:10.445Z,9.80
2022-09-17T22:00:40.484Z,9.80
2022-09-17T22:03:12.148Z,9.80
2022-09-17T22:05:42.243Z,9.70
2022-09-17T22:08:12.706Z,9.70
2022-09-17T22:10:42.797Z,9.70
2022-09-17T22:13:12.836Z,9.70
2022-09-17T22:15:42.618Z,9.70
2022-09-17T22:18:14.102Z,9.80
2022-09-17T22:20:44.506Z,9.90
2022-09-17T22:23:14.316Z,9.80
2022-09-17T22:25:44.147Z,9.80
2022-09-17T22:28:21.557Z,9.80
2022-09-17T22:30:52.829Z,9.80
2022-09-17T22:33:26.783Z,9.80
2022-09-17T22:36:02.270Z,9.80
2022-09-17T22:38:32.353Z,9.90
2022-09-17T22:41:04.847Z,9.90
2022-09-17T22:43:35.479Z,9.90
2022-09-17T22:46:12.954Z,9.90
2022-09-17T22:48:45.308Z,9.80
2022-09-17T22:51:15.659Z,9.80
2022-09-17T22:53:46.266Z,9.80
2022-09-17T22:56:20.093Z,9.90
2022-09-17T22:58:50.200Z,9.80
2022-09-17T23:01:22.429Z,9.80
2022-09-17T23:03:54.350Z,9.90
2022-09-17T23:06:26.081Z,9.80
2022-09-17T23:08:56.891Z,9.90
2022-09-17T23:11:30.497Z,9.90
2022-09-17T23:14:02.869Z,9.80
2022-09-17T23:16:37.010Z,9.70
2022-09-17T23:19:09.003Z,9.70
2022-09-17T23:21:38.928Z,9.70
2022-09-17T23:24:14.463Z,9.40
2022-09-17T23:26:44.369Z,9.50
2022-09-17T23:29:14.234Z,9.50
2022-09-17T23:31:44.525Z,9.40
2022-09-17T23:34:15.877Z,9.40
2022-09-17T23:36:45.958Z,9.40
2022-09-17T23:39:16.625Z,9.40
2022-09-17T23:41:47.972Z,9.40
2022-09-17T23:44:17.725Z,9.30
2022-09-17T23:46:48.186Z,9.30
2022-09-17T23:49:20.074Z,9.30
2022-09-17T23:51:49.699Z,9.30
2022-09-17T23:54:19.706Z,9.30
2022-09-17T23:56:49.714Z,9.30
2022-09-17T23:59:19.506Z,9.30
